Time;durP1;ratioP1;P1;durP2;ratioP2;P2;SDS_P1;SDS_P2;PMS_P1;PMS_P2;Temp;Humidity;BMP_temperature;BMP_pressure;BME280_temperature;BME280_humidity;BME280_pressure;Samples;Min_cycle;Max_cycle;Signal;HPM_P1;HPM_P2
2022/08/09 00:01:47;;;;;;;1.38;0.50;;;25.10;45.20;;;;;;5034852;28;20038;-61
2022/08/09 00:04:14;;;;;;;1.13;0.55;;;25.10;45.20;;;;;;5034081;28;20449;-58
2022/08/09 00:06:40;;;;;;;0.98;0.45;;;25.10;45.30;;;;;;5037618;28;20036;-60
2022/08/09 00:09:06;;;;;;;0.80;0.45;;;25.10;45.30;;;;;;5035890;28;20029;-61
2022/08/09 00:11:32;;;;;;;0.50;0.47;;;25.10;45.30;;;;;;5037172;28;20022;-59
2022/08/09 00:13:58;;;;;;;0.63;0.50;;;25.10;45.30;;;;;;5038737;28;20352;-60
2022/08/09 00:16:23;;;;;;;1.00;0.40;;;25.10;45.40;;;;;;5035112;28;20033;-61
2022/08/09 00:18:49;;;;;;;1.20;0.50;;;25.10;45.40;;;;;;5018468;28;20045;-60
2022/08/09 00:21:15;;;;;;;1.98;0.65;;;25.00;45.40;;;;;;5030676;28;20503;-59
2022/08/09 00:23:41;;;;;;;1.00;0.45;;;25.00;45.40;;;;;;5037518;28;20041;-60
2022/08/09 00:26:07;;;;;;;0.80;0.47;;;25.00;45.40;;;;;;5038090;28;20053;-57
2022/08/09 00:28:34;;;;;;;1.33;0.50;;;25.10;45.50;;;;;;5037861;28;20030;-60
2022/08/09 00:31:00;;;;;;;3.25;1.02;;;25.00;45.40;;;;;;5038854;28;20333;-61
2022/08/09 00:33:25;;;;;;;1.80;0.82;;;25.00;45.40;;;;;;5038080;28;20037;-60
2022/08/09 00:35:51;;;;;;;0.93;0.40;;;25.00;45.50;;;;;;5037865;28;20034;-56
2022/08/09 00:38:17;;;;;;;2.15;0.55;;;25.00;45.50;;;;;;5035657;28;20041;-60
2022/08/09 00:40:43;;;;;;;0.90;0.52;;;25.00;45.50;;;;;;5038341;28;20036;-61
2022/08/09 00:43:09;;;;;;;1.40;0.70;;;25.00;45.50;;;;;;5020863;28;20033;-60
2022/08/09 00:45:35;;;;;;;1.88;0.88;;;25.00;45.50;;;;;;5038031;28;20040;-61
2022/08/09 00:48:03;;;;;;;1.33;0.40;;;25.00;45.50;;;;;;5035788;28;20041;-58
2022/08/09 00:50:29;;;;;;;0.70;0.50;;;25.00;45.80;;;;;;5036991;28;20053;-58
2022/08/09 00:52:54;;;;;;;1.73;0.70;;;25.00;45.60;;;;;;5037420;28;20413;-60
2022/08/09 00:55:20;;;;;;;0.90;0.40;;;25.00;45.60;;;;;;5037214;28;20084;-57
2022/08/09 00:57:46;;;;;;;1.38;0.52;;;25.00;45.60;;;;;;5036675;28;20132;-56
2022/08/09 01:00:13;;;;;;;0.80;0.40;;;25.00;45.60;;;;;;5037576;28;20368;-58
2022/08/09 01:02:46;;;;;;;0.45;0.43;;;25.00;45.70;;;;;;5037857;28;20090;-60
2022/08/09 01:05:21;;;;;;;1.48;0.60;;;25.00;45.70;;;;;;5034497;28;20037;-61
2022/08/09 01:07:53;;;;;;;1.15;0.52;;;24.90;45.70;;;;;;5035958;28;20060;-60
2022/08/09 01:11:06;;;;;;;1.80;0.50;;;24.90;45.70;;;;;;5037515;28;20404;-59
2022/08/09 01:13:47;;;;;;;0.88;0.57;;;24.90;45.70;;;;;;5001979;28;20056;-58
2022/08/09 01:16:15;;;;;;;0.63;0.40;;;24.90;45.70;;;;;;5036994;28;20034;-60
2022/08/09 01:18:44;;;;;;;2.22;0.68;;;24.90;45.80;;;;;;5035969;28;20056;-59
2022/08/09 01:21:42;;;;;;;0.70;0.50;;;24.90;45.80;;;;;;5036862;28;20033;-59
2022/08/09 01:24:29;;;;;;;1.77;0.50;;;24.90;45.80;;;;;;5034942;28;20483;-60
2022/08/09 01:26:59;;;;;;;0.73;0.50;;;24.90;45.90;;;;;;5036909;28;20041;-60
2022/08/09 01:29:56;;;;;;;1.52;0.60;;;24.90;45.90;;;;;;5037230;28;20088;-56
2022/08/09 01:32:29;;;;;;;2.30;0.50;;;24.80;45.90;;;;;;5022257;28;20029;-59
2022/08/09 01:34:56;;;;;;;1.33;0.52;;;24.80;45.90;;;;;;5036614;28;20038;-59
2022/08/09 01:37:23;;;;;;;0.70;0.47;;;24.80;45.90;;;;;;5035392;28;20377;-60
2022/08/09 01:39:51;;;;;;;1.85;0.80;;;24.80;45.90;;;;;;5037539;28;20037;-60
2022/08/09 01:42:18;;;;;;;0.90;0.50;;;24.80;45.90;;;;;;5037304;28;20429;-57
2022/08/09 01:44:45;;;;;;;2.65;1.00;;;24.80;45.90;;;;;;5034238;28;20030;-60
2022/08/09 01:47:12;;;;;;;1.17;0.47;;;24.80;46.00;;;;;;5035629;28;20084;-60
2022/08/09 01:49:39;;;;;;;0.68;0.47;;;24.80;46.00;;;;;;5037284;28;20044;-59
2022/08/09 01:52:11;;;;;;;1.02;0.50;;;24.80;46.00;;;;;;5036870;28;20041;-58
2022/08/09 01:54:44;;;;;;;1.20;0.50;;;24.80;46.00;;;;;;5024911;28;20099;-59
2022/08/09 01:57:18;;;;;;;1.55;0.80;;;24.80;46.00;;;;;;5035132;28;20048;-59
2022/08/09 01:59:49;;;;;;;1.38;0.63;;;24.80;46.00;;;;;;5037071;28;20037;-60
2022/08/09 02:02:18;;;;;;;1.10;0.45;;;24.80;46.10;;;;;;5033865;28;20029;-59
2022/08/09 02:04:44;;;;;;;0.60;0.50;;;24.80;46.10;;;;;;5036970;28;20430;-59
2022/08/09 02:07:15;;;;;;;1.52;0.60;;;24.80;46.10;;;;;;5034747;28;20136;-60
2022/08/09 02:09:55;;;;;;;1.35;0.50;;;24.80;46.10;;;;;;5036739;28;20467;-60
2022/08/09 02:12:22;;;;;;;0.90;0.45;;;24.70;46.10;;;;;;5036534;28;20038;-59
2022/08/09 02:14:51;;;;;;;1.73;0.65;;;24.80;46.20;;;;;;5035444;28;20033;-58
2022/08/09 02:17:20;;;;;;;1.23;0.40;;;24.70;46.20;;;;;;5033709;28;20036;-60
2022/08/09 02:19:46;;;;;;;0.95;0.40;;;24.70;46.20;;;;;;5036748;28;20025;-60
2022/08/09 02:22:40;;;;;;;1.80;0.60;;;24.70;46.20;;;;;;5036439;28;20043;-59
2022/08/09 02:25:14;;;;;;;0.77;0.50;;;24.70;46.30;;;;;;5036000;28;20453;-61
2022/08/09 02:27:44;;;;;;;1.20;0.50;;;24.70;46.30;;;;;;5033419;28;20497;-60
2022/08/09 02:30:12;;;;;;;1.42;0.57;;;24.70;46.30;;;;;;5034801;28;20029;-60
2022/08/09 02:32:43;;;;;;;1.05;0.50;;;24.70;46.30;;;;;;5036274;28;20096;-58
2022/08/09 02:35:17;;;;;;;1.95;0.60;;;24.70;46.40;;;;;;5036431;28;20099;-59
2022/08/09 02:37:45;;;;;;;;;;;24.70;46.40;;;;;;5034569;28;20037;-59
2022/08/09 02:40:15;;;;;;;0.90;0.40;;;24.70;46.40;;;;;;5036468;28;19909;-57
2022/08/09 02:42:44;;;;;;;1.08;0.50;;;24.70;46.40;;;;;;5035329;28;20037;-59
2022/08/09 02:45:25;;;;;;;0.63;0.47;;;24.60;46.40;;;;;;5034886;28;20087;-59
2022/08/09 02:47:53;;;;;;;0.90;0.40;;;24.60;46.50;;;;;;5034980;28;20044;-59
2022/08/09 02:50:32;;;;;;;0.77;0.40;;;24.70;46.50;;;;;;5035777;28;20045;-60
2022/08/09 02:53:01;;;;;;;0.95;0.47;;;24.60;46.50;;;;;;5034677;28;20116;-61
2022/08/09 02:55:29;;;;;;;0.82;0.60;;;24.60;46.50;;;;;;5035756;28;20069;-59
2022/08/09 02:57:57;;;;;;;0.73;0.45;;;24.60;46.50;;;;;;5033361;28;20045;-60
2022/08/09 03:00:24;;;;;;;0.75;0.50;;;24.60;46.60;;;;;;5034314;28;20032;-62
2022/08/09 03:02:53;;;;;;;0.57;0.40;;;24.60;46.60;;;;;;5035348;28;20036;-60
2022/08/09 03:05:21;;;;;;;0.95;0.60;;;24.60;46.60;;;;;;5034995;28;20025;-59
2022/08/09 03:07:49;;;;;;;1.27;0.55;;;24.60;46.60;;;;;;5034554;28;20025;-57
2022/08/09 03:10:15;;;;;;;0.40;0.40;;;24.60;46.70;;;;;;5035905;28;20025;-59
2022/08/09 03:12:43;;;;;;;2.58;0.63;;;24.60;46.70;;;;;;5033608;28;20116;-59
2022/08/09 03:15:10;;;;;;;1.25;0.50;;;24.60;46.70;;;;;;5035420;28;20035;-60
2022/08/09 03:17:37;;;;;;;0.90;0.60;;;24.60;46.70;;;;;;5033299;28;20033;-61
2022/08/09 03:20:06;;;;;;;1.48;0.50;;;24.60;46.70;;;;;;5035516;28;20107;-60
2022/08/09 03:22:38;;;;;;;2.85;0.90;;;24.60;46.70;;;;;;5031250;28;20033;-61
2022/08/09 03:25:04;;;;;;;0.95;0.47;;;24.60;46.80;;;;;;5032230;28;20041;-59
2022/08/09 03:27:32;;;;;;;0.45;0.40;;;24.60;46.80;;;;;;5004107;28;20030;-60
2022/08/09 03:29:58;;;;;;;1.15;0.50;;;24.60;46.80;;;;;;5024391;28;20044;-58
2022/08/09 03:32:26;;;;;;;1.33;0.55;;;24.60;46.90;;;;;;5035251;28;20033;-60
2022/08/09 03:34:51;;;;;;;0.90;0.57;;;24.50;46.80;;;;;;5034694;28;20033;-58
2022/08/09 03:37:17;;;;;;;1.80;0.60;;;24.60;46.90;;;;;;5033419;28;20087;-57
2022/08/09 03:39:44;;;;;;;0.98;0.43;;;24.50;46.90;;;;;;5034165;28;20033;-59
2022/08/09 03:42:09;;;;;;;1.30;0.70;;;24.50;47.00;;;;;;5027938;28;20045;-59
2022/08/09 03:44:35;;;;;;;0.88;0.50;;;24.50;46.90;;;;;;5030493;28;20037;-58
2022/08/09 03:47:01;;;;;;;1.55;0.63;;;24.50;47.00;;;;;;5032633;28;20036;-59
2022/08/09 03:49:28;;;;;;;1.52;0.65;;;24.50;47.00;;;;;;5017855;28;20033;-60
2022/08/09 03:51:58;;;;;;;1.40;0.57;;;24.50;47.00;;;;;;5034815;28;20087;-60
2022/08/09 03:54:28;;;;;;;1.83;0.65;;;24.50;47.00;;;;;;5034410;28;20065;-62
2022/08/09 03:56:55;;;;;;;0.75;0.47;;;24.50;47.10;;;;;;5032350;28;20033;-60
2022/08/09 03:59:21;;;;;;;0.90;0.50;;;24.50;47.00;;;;;;5035191;28;20038;-59
2022/08/09 04:01:49;;;;;;;1.40;0.50;;;24.40;47.00;;;;;;5034731;28;20036;-60
2022/08/09 04:04:15;;;;;;;1.88;0.65;;;24.50;47.10;;;;;;5034484;28;20099;-57
2022/08/09 04:06:41;;;;;;;1.42;0.60;;;24.50;47.10;;;;;;5033979;28;20025;-56
2022/08/09 04:09:07;;;;;;;1.38;0.63;;;24.40;47.10;;;;;;5033672;28;20455;-59
2022/08/09 04:12:04;;;;;;;1.15;0.60;;;24.40;47.10;;;;;;5032024;28;20091;-60
2022/08/09 04:14:30;;;;;;;1.10;0.50;;;24.40;47.10;;;;;;5034749;28;20349;-60
2022/08/09 04:16:56;;;;;;;1.40;0.60;;;24.40;47.80;;;;;;5034144;28;20349;-61
2022/08/09 04:19:22;;;;;;;1.40;0.63;;;24.40;47.20;;;;;;5030565;28;20040;-57
2022/08/09 04:21:48;;;;;;;1.08;0.60;;;24.40;47.20;;;;;;5032724;28;20457;-61
2022/08/09 04:24:14;;;;;;;1.25;0.57;;;24.40;47.20;;;;;;5033820;28;20029;-58
2022/08/09 04:26:40;;;;;;;1.98;0.82;;;24.40;47.20;;;;;;5014690;28;20389;-59
2022/08/09 04:29:05;;;;;;;1.58;0.70;;;24.40;47.30;;;;;;5032634;28;20037;-59
2022/08/09 04:31:31;;;;;;;1.00;0.50;;;24.40;47.30;;;;;;5027148;28;20040;-58
2022/08/09 04:33:57;;;;;;;1.70;0.60;;;24.40;47.30;;;;;;5034534;28;20053;-59
2022/08/09 04:36:28;;;;;;;1.15;0.63;;;24.40;47.30;;;;;;5034480;28;20479;-58
2022/08/09 04:38:56;;;;;;;1.25;0.68;;;24.40;47.30;;;;;;5034039;28;20433;-60
2022/08/09 04:41:22;;;;;;;0.75;0.40;;;24.40;47.30;;;;;;5034000;28;20037;-57
2022/08/09 04:43:49;;;;;;;0.45;0.40;;;24.40;47.30;;;;;;5033633;28;20022;-60
2022/08/09 04:46:15;;;;;;;1.35;0.60;;;24.40;47.30;;;;;;5034697;28;20033;-60
2022/08/09 04:48:40;;;;;;;1.25;0.60;;;24.40;47.30;;;;;;5034127;28;20060;-60
2022/08/09 04:51:06;;;;;;;1.77;0.60;;;24.40;47.40;;;;;;5034141;28;20033;-60
2022/08/09 04:53:32;;;;;;;0.85;0.50;;;24.40;47.40;;;;;;5037859;28;20132;-60
2022/08/09 04:55:58;;;;;;;1.95;0.63;;;24.40;47.30;;;;;;5036757;28;20055;-61
2022/08/09 04:58:27;;;;;;;1.70;0.90;;;24.30;47.30;;;;;;5016081;28;20042;-59
2022/08/09 05:00:54;;;;;;;1.00;0.60;;;24.30;47.30;;;;;;5033092;28;20064;-60
2022/08/09 05:03:20;;;;;;;1.25;0.40;;;24.30;47.30;;;;;;5036590;28;20099;-59
2022/08/09 05:05:47;;;;;;;2.92;0.95;;;24.30;47.40;;;;;;5036262;28;20028;-57
2022/08/09 05:08:13;;;;;;;1.35;0.77;;;24.30;47.30;;;;;;5037717;28;20376;-57
2022/08/09 05:10:39;;;;;;;1.02;0.70;;;24.30;47.40;;;;;;5036387;28;20033;-60
2022/08/09 05:13:04;;;;;;;1.73;0.70;;;24.30;47.40;;;;;;5037295;28;20033;-59
2022/08/09 05:15:30;;;;;;;1.35;0.60;;;24.30;47.40;;;;;;5036018;28;20049;-61
2022/08/09 05:17:56;;;;;;;1.38;0.50;;;24.30;47.40;;;;;;5037860;28;20444;-59
2022/08/09 05:20:24;;;;;;;0.98;0.60;;;24.30;47.40;;;;;;5037534;28;20033;-59
2022/08/09 05:22:52;;;;;;;1.45;0.80;;;24.30;47.40;;;;;;5037290;28;20068;-60
2022/08/09 05:25:22;;;;;;;0.85;0.60;;;24.30;47.40;;;;;;5035501;28;20099;-57
2022/08/09 05:27:49;;;;;;;1.48;0.50;;;24.30;47.40;;;;;;5037651;28;20037;-55
2022/08/09 05:30:16;;;;;;;1.98;0.70;;;24.30;47.40;;;;;;5036790;28;20041;-58
2022/08/09 05:32:46;;;;;;;1.30;0.73;;;24.30;47.40;;;;;;5037438;28;20029;-60
2022/08/09 05:35:11;;;;;;;1.15;0.80;;;24.30;47.50;;;;;;5036043;28;20064;-60
2022/08/09 05:37:38;;;;;;;2.20;0.80;;;24.30;47.50;;;;;;5035304;28;20033;-60
2022/08/09 05:40:05;;;;;;;1.10;0.50;;;24.30;48.20;;;;;;5035135;28;20103;-59
2022/08/09 05:42:32;;;;;;;0.82;0.60;;;24.30;47.50;;;;;;5037213;28;20373;-60
2022/08/09 05:44:58;;;;;;;1.45;0.50;;;24.30;48.20;;;;;;5036883;28;20314;-59
2022/08/09 05:47:25;;;;;;;1.80;0.70;;;24.30;47.60;;;;;;5036888;28;20096;-60
2022/08/09 05:49:52;;;;;;;2.65;0.93;;;24.30;47.60;;;;;;5017759;28;20334;-57
2022/08/09 05:52:18;;;;;;;1.02;0.63;;;24.30;47.60;;;;;;5035382;28;20052;-61
2022/08/09 05:54:44;;;;;;;2.92;0.88;;;24.30;47.70;;;;;;5035849;28;20119;-61
2022/08/09 05:57:09;;;;;;;1.23;0.70;;;24.30;47.70;;;;;;5036967;28;20037;-59
2022/08/09 05:59:35;;;;;;;1.55;0.70;;;24.30;47.70;;;;;;5035402;28;20053;-60
2022/08/09 06:02:01;;;;;;;2.63;0.60;;;24.30;47.70;;;;;;5036716;28;20114;-60
2022/08/09 06:04:27;;;;;;;1.00;0.60;;;24.30;47.70;;;;;;5036601;28;20053;-59
2022/08/09 06:06:53;;;;;;;1.60;0.60;;;24.30;47.70;;;;;;5035073;28;20071;-58
2022/08/09 06:09:19;;;;;;;1.67;0.82;;;24.30;47.80;;;;;;5035300;28;20039;-59
2022/08/09 06:11:45;;;;;;;3.05;0.98;;;24.30;47.80;;;;;;5036695;28;20041;-61
2022/08/09 06:14:11;;;;;;;1.02;0.73;;;24.30;47.90;;;;;;5036702;28;20113;-60
2022/08/09 06:16:37;;;;;;;1.98;0.90;;;24.30;47.90;;;;;;5036255;28;20419;-59
2022/08/09 06:19:03;;;;;;;2.67;0.95;;;24.30;48.60;;;;;;5034971;28;20396;-57
2022/08/09 06:21:29;;;;;;;2.63;0.77;;;24.30;48.00;;;;;;5033708;28;20112;-60
2022/08/09 06:23:54;;;;;;;1.30;0.73;;;24.20;48.00;;;;;;5035750;28;20051;-58
2022/08/09 06:26:21;;;;;;;2.22;0.80;;;24.30;48.00;;;;;;5036409;28;20072;-60
2022/08/09 06:28:51;;;;;;;3.30;0.90;;;24.30;48.00;;;;;;5035726;28;20026;-58
2022/08/09 06:31:17;;;;;;;1.17;0.52;;;24.30;48.60;;;;;;5035864;28;20033;-59
2022/08/09 06:33:43;;;;;;;1.05;0.70;;;24.30;48.00;;;;;;5033728;28;20036;-59
2022/08/09 06:36:09;;;;;;;2.13;0.60;;;24.30;48.00;;;;;;5034285;28;20034;-55
2022/08/09 06:38:35;;;;;;;1.38;0.70;;;24.20;48.00;;;;;;5036051;28;20046;-57
2022/08/09 06:41:01;;;;;;;2.05;0.70;;;24.30;48.00;;;;;;5033177;28;20399;-59
2022/08/09 06:43:27;;;;;;;2.47;0.93;;;24.30;48.10;;;;;;5034820;28;20116;-57
2022/08/09 06:45:53;;;;;;;1.30;0.68;;;24.30;48.20;;;;;;5033678;28;20467;-60
2022/08/09 06:48:19;;;;;;;2.03;0.75;;;24.20;48.20;;;;;;5033803;28;20029;-60
2022/08/09 06:50:45;;;;;;;1.67;0.60;;;24.30;48.30;;;;;;5034888;28;20496;-57
2022/08/09 06:53:12;;;;;;;1.35;0.60;;;24.30;48.40;;;;;;5035971;28;20124;-54
2022/08/09 06:55:38;;;;;;;1.42;0.70;;;24.30;48.40;;;;;;5034288;28;20061;-58
2022/08/09 06:58:04;;;;;;;1.50;0.70;;;24.30;48.40;;;;;;5033937;28;20053;-58
2022/08/09 07:00:33;;;;;;;2.08;0.80;;;24.30;48.40;;;;;;5034077;28;20056;-59
2022/08/09 07:02:59;;;;;;;1.63;0.70;;;24.30;48.50;;;;;;5035892;28;20069;-61
2022/08/09 07:05:25;;;;;;;1.52;0.68;;;24.30;48.50;;;;;;5033415;28;20455;-59
2022/08/09 07:07:53;;;;;;;1.15;0.60;;;24.30;48.60;;;;;;5034619;28;20037;-60
2022/08/09 07:10:20;;;;;;;0.95;0.60;;;24.30;48.50;;;;;;5033747;28;20029;-58
2022/08/09 07:12:45;;;;;;;2.00;0.90;;;24.30;48.60;;;;;;5031778;28;20033;-58
2022/08/09 07:15:11;;;;;;;3.13;0.70;;;24.30;48.60;;;;;;5028880;28;20117;-58
2022/08/09 07:17:37;;;;;;;0.70;0.50;;;24.30;48.60;;;;;;5032028;28;20029;-60
2022/08/09 07:20:03;;;;;;;1.02;0.50;;;24.30;48.60;;;;;;5034271;28;20110;-59
2022/08/09 07:22:29;;;;;;;1.83;0.98;;;24.30;48.60;;;;;;5033357;28;20028;-57
2022/08/09 07:24:55;;;;;;;1.20;0.50;;;24.30;48.60;;;;;;5034176;28;20033;-59
2022/08/09 07:27:21;;;;;;;0.90;0.55;;;24.40;48.60;;;;;;5033556;28;20089;-59
2022/08/09 07:29:47;;;;;;;1.45;0.50;;;24.40;48.60;;;;;;5033302;28;20091;-60
2022/08/09 07:32:12;;;;;;;0.60;0.40;;;24.40;48.60;;;;;;5034879;28;20029;-59
2022/08/09 07:34:38;;;;;;;0.55;0.47;;;24.40;48.50;;;;;;5035759;28;20061;-57
2022/08/09 07:37:04;;;;;;;0.40;0.30;;;24.40;48.50;;;;;;5033408;28;20030;-59
2022/08/09 07:39:30;;;;;;;1.08;0.50;;;24.40;48.40;;;;;;5034811;28;20156;-58
2022/08/09 07:41:55;;;;;;;0.70;0.30;;;24.40;48.40;;;;;;5033036;28;20025;-59
2022/08/09 07:44:22;;;;;;;0.63;0.30;;;24.40;48.40;;;;;;5034566;28;20048;-59
2022/08/09 07:46:47;;;;;;;1.02;0.45;;;24.40;48.40;;;;;;5034147;28;20030;-56
2022/08/09 07:49:13;;;;;;;0.77;0.45;;;24.50;48.40;;;;;;5034883;28;20025;-60
2022/08/09 07:51:39;;;;;;;1.20;0.50;;;24.40;48.40;;;;;;5017538;28;20030;-58
2022/08/09 07:54:05;;;;;;;1.35;0.57;;;24.40;48.40;;;;;;5034696;28;20049;-54
2022/08/09 07:56:32;;;;;;;1.45;0.40;;;24.40;48.40;;;;;;5033268;28;20473;-59
2022/08/09 07:58:58;;;;;;;0.63;0.40;;;24.40;48.30;;;;;;5032291;28;20045;-58
2022/08/09 08:01:24;;;;;;;1.00;0.50;;;24.40;48.30;;;;;;5032289;28;20050;-59
2022/08/09 08:03:50;;;;;;;1.13;0.38;;;24.40;48.40;;;;;;5030949;28;20030;-60
2022/08/09 08:06:16;;;;;;;1.67;0.40;;;24.40;48.30;;;;;;5032738;28;20191;-57
2022/08/09 08:08:48;;;;;;;1.23;0.30;;;24.50;48.30;;;;;;5033356;28;20028;-59
2022/08/09 08:11:15;;;;;;;2.17;0.98;;;24.40;48.10;;;;;;5034951;28;20104;-58
2022/08/09 08:13:41;;;;;;;0.90;0.50;;;24.40;48.10;;;;;;5032836;28;20033;-58
2022/08/09 08:16:08;;;;;;;1.65;0.40;;;24.50;48.10;;;;;;5033846;28;20037;-58
2022/08/09 08:18:34;;;;;;;0.90;0.40;;;24.40;47.90;;;;;;5012826;28;20060;-61
2022/08/09 08:21:00;;;;;;;1.10;0.30;;;24.40;47.80;;;;;;5034249;28;20032;-56
2022/08/09 08:23:26;;;;;;;0.85;0.30;;;24.40;47.60;;;;;;5033177;28;20029;-60
2022/08/09 08:25:52;;;;;;;0.70;0.30;;;24.40;47.50;;;;;;5031866;28;20017;-58
2022/08/09 08:28:20;;;;;;;1.20;0.55;;;24.50;47.40;;;;;;5032555;28;20034;-59
2022/08/09 08:30:46;;;;;;;0.63;0.35;;;24.50;47.40;;;;;;5023193;28;20040;-60
2022/08/09 08:33:13;;;;;;;0.63;0.30;;;24.50;47.30;;;;;;5037881;28;20105;-58
2022/08/09 08:35:38;;;;;;;0.35;0.30;;;24.50;47.30;;;;;;5038789;28;20041;-56
2022/08/09 08:38:04;;;;;;;0.65;0.32;;;24.50;47.20;;;;;;5036384;28;20056;-56
2022/08/09 08:40:31;;;;;;;0.82;0.40;;;24.50;47.10;;;;;;5038252;28;20022;-58
2022/08/09 08:42:58;;;;;;;1.70;0.52;;;24.60;47.00;;;;;;5037618;28;20044;-60
2022/08/09 08:45:32;;;;;;;0.73;0.30;;;24.60;46.90;;;;;;5037416;28;20037;-61
2022/08/09 08:47:58;;;;;;;;;;;24.60;46.70;;;;;;5038067;28;20037;-60
2022/08/09 08:50:24;;;;;;;0.30;0.22;;;24.60;46.70;;;;;;5020109;28;19909;-59
2022/08/09 08:52:51;;;;;;;1.08;0.73;;;24.60;46.60;;;;;;5037489;28;20057;-60
2022/08/09 08:55:17;;;;;;;0.50;0.35;;;24.60;46.50;;;;;;5037762;28;20057;-60
2022/08/09 08:57:44;;;;;;;0.40;0.30;;;24.60;46.30;;;;;;5037540;28;20305;-61
2022/08/09 09:00:11;;;;;;;0.55;0.30;;;24.60;46.30;;;;;;5037525;28;20041;-60
2022/08/09 09:02:38;;;;;;;0.73;0.30;;;24.60;46.10;;;;;;5037826;28;20037;-58
2022/08/09 09:05:04;;;;;;;1.23;0.43;;;24.60;46.00;;;;;;5036233;28;20041;-59
2022/08/09 09:07:32;;;;;;;1.23;0.40;;;24.60;46.00;;;;;;5037055;28;20396;-58
2022/08/09 09:10:02;;;;;;;0.47;0.30;;;24.60;45.90;;;;;;5037899;28;20021;-57
2022/08/09 09:12:30;;;;;;;0.68;0.30;;;24.60;45.90;;;;;;5037271;28;20033;-60
2022/08/09 09:15:00;;;;;;;0.63;0.25;;;24.60;45.80;;;;;;5037743;28;20048;-59
2022/08/09 09:17:25;;;;;;;0.60;0.30;;;24.70;45.80;;;;;;5031946;28;20029;-59
2022/08/09 09:19:53;;;;;;;0.40;0.20;;;24.70;45.80;;;;;;5035587;28;20038;-59
2022/08/09 09:22:20;;;;;;;0.35;0.22;;;24.70;45.70;;;;;;5036297;28;20030;-57
2022/08/09 09:24:49;;;;;;;0.30;0.30;;;24.70;45.70;;;;;;5037462;28;20049;-58
2022/08/09 09:27:26;;;;;;;0.30;0.22;;;24.70;45.60;;;;;;5037782;28;20045;-60
2022/08/09 09:29:53;;;;;;;0.95;0.30;;;24.70;45.50;;;;;;5037483;28;20030;-56
2022/08/09 09:32:25;;;;;;;0.20;0.20;;;24.70;45.50;;;;;;5035654;28;20449;-56
2022/08/09 09:35:10;;;;;;;0.55;0.22;;;24.70;45.40;;;;;;5033681;28;20383;-58
2022/08/09 09:37:38;;;;;;;0.65;0.30;;;24.70;45.30;;;;;;5037532;28;20112;-58
2022/08/09 09:40:05;;;;;;;0.20;0.20;;;24.70;45.20;;;;;;5037259;28;20037;-63
2022/08/09 09:42:31;;;;;;;1.08;0.40;;;24.70;45.10;;;;;;5035578;28;20026;-60
2022/08/09 09:45:06;;;;;;;0.35;0.17;;;24.70;45.10;;;;;;5035703;28;20346;-58
2022/08/09 09:47:32;;;;;;;0.80;0.30;;;24.70;45.10;;;;;;5034006;28;20467;-61
2022/08/09 09:49:59;;;;;;;0.22;0.20;;;24.70;45.10;;;;;;5037204;28;20037;-61
2022/08/09 09:52:26;;;;;;;1.20;0.40;;;24.80;45.10;;;;;;5036942;28;20037;-60
2022/08/09 09:55:03;;;;;;;0.82;0.40;;;24.80;45.00;;;;;;5035251;28;20053;-60
2022/08/09 09:57:29;;;;;;;0.17;0.15;;;24.80;45.00;;;;;;5026693;28;20384;-60
2022/08/09 09:59:55;;;;;;;1.08;0.35;;;24.80;45.00;;;;;;5031940;28;20057;-61
2022/08/09 10:02:23;;;;;;;0.20;0.20;;;24.80;45.00;;;;;;5035680;28;20348;-61
2022/08/09 10:05:05;;;;;;;0.57;0.30;;;24.80;45.00;;;;;;5037096;28;20057;-61
2022/08/09 10:07:31;;;;;;;0.55;0.30;;;24.90;44.90;;;;;;5036530;28;20326;-62
2022/08/09 10:09:58;;;;;;;0.30;0.30;;;24.80;44.90;;;;;;5035945;28;20029;-62
2022/08/09 10:12:29;;;;;;;0.13;0.10;;;24.90;45.00;;;;;;5036624;28;20021;-61
2022/08/09 10:15:10;;;;;;;0.70;0.30;;;24.90;45.00;;;;;;5035284;28;20117;-60
2022/08/09 10:17:37;;;;;;;0.13;0.13;;;24.90;45.00;;;;;;5033738;28;20022;-61
2022/08/09 10:20:06;;;;;;;0.32;0.30;;;24.90;45.00;;;;;;5028071;28;20045;-62
2022/08/09 10:22:36;;;;;;;0.45;0.30;;;24.90;45.00;;;;;;5028944;28;20040;-62
2022/08/09 10:25:05;;;;;;;0.30;0.30;;;25.00;45.10;;;;;;5026821;28;20033;-60
2022/08/09 10:27:32;;;;;;;0.50;0.30;;;25.00;45.00;;;;;;5030050;28;20032;-62
2022/08/09 10:30:05;;;;;;;0.38;0.20;;;25.00;45.00;;;;;;5016144;28;20112;-63
2022/08/09 10:32:33;;;;;;;0.38;0.20;;;25.00;45.00;;;;;;5030079;28;20034;-61
2022/08/09 10:34:59;;;;;;;1.25;0.40;;;25.00;45.10;;;;;;5029686;28;20030;-59
2022/08/09 10:37:26;;;;;;;0.98;0.50;;;25.00;45.10;;;;;;5030069;28;20103;-59
2022/08/09 10:39:52;;;;;;;0.45;0.25;;;25.00;45.10;;;;;;5028034;28;20033;-58
2022/08/09 10:42:19;;;;;;;0.45;0.25;;;25.00;45.10;;;;;;5018563;28;20116;-57
2022/08/09 10:44:53;;;;;;;0.63;0.40;;;25.00;45.10;;;;;;5030387;28;20068;-62
2022/08/09 10:47:40;;;;;;;0.68;0.30;;;25.10;45.20;;;;;;5028735;28;20113;-60
2022/08/09 10:53:34;;;;;;;0.80;0.28;;;25.10;45.20;;;;;;5029619;28;20053;-59
2022/08/09 10:56:18;;;;;;;0.20;0.20;;;25.10;45.20;;;;;;5028081;28;20025;-56
2022/08/09 10:58:45;;;;;;;0.52;0.30;;;25.10;45.20;;;;;;5027414;28;20038;-59
2022/08/09 11:01:32;;;;;;;1.08;0.20;;;25.10;45.20;;;;;;5030299;28;20124;-60
2022/08/09 11:04:07;;;;;;;0.63;0.10;;;25.10;45.20;;;;;;5027254;28;20029;-58
2022/08/09 11:06:35;;;;;;;0.55;0.30;;;25.10;45.30;;;;;;5029307;28;20040;-59
2022/08/09 11:09:02;;;;;;;0.63;0.40;;;25.10;45.20;;;;;;5029234;28;20360;-56
2022/08/09 11:11:54;;;;;;;0.95;0.30;;;25.20;45.20;;;;;;5030463;28;20482;-58
2022/08/09 11:14:34;;;;;;;1.10;0.32;;;25.20;45.10;;;;;;5028283;28;20123;-61
2022/08/09 11:17:25;;;;;;;1.42;0.63;;;25.20;45.10;;;;;;5027474;28;20021;-62
2022/08/09 11:20:07;;;;;;;0.75;0.22;;;25.20;45.10;;;;;;5026012;28;20037;-62
2022/08/09 11:22:40;;;;;;;0.55;0.20;;;25.20;45.10;;;;;;5019115;28;20033;-63
2022/08/09 11:25:09;;;;;;;0.52;0.20;;;25.20;45.10;;;;;;5026879;28;20068;-63
2022/08/09 11:27:39;;;;;;;0.47;0.45;;;25.20;45.10;;;;;;5026912;28;20061;-59
2022/08/09 11:30:10;;;;;;;0.82;0.30;;;25.20;45.00;;;;;;5018573;28;20449;-60
2022/08/09 11:32:38;;;;;;;0.20;0.20;;;25.20;45.00;;;;;;5023710;28;20034;-64
2022/08/09 11:35:26;;;;;;;0.75;0.30;;;25.20;45.00;;;;;;5026057;28;20095;-64
2022/08/09 11:38:16;;;;;;;0.30;0.30;;;25.30;45.00;;;;;;5024329;28;20045;-64
2022/08/09 11:40:43;;;;;;;0.45;0.22;;;25.30;44.90;;;;;;5027252;28;20364;-63
2022/08/09 11:43:15;;;;;;;0.30;0.20;;;25.30;44.80;;;;;;5028151;28;20044;-63
2022/08/09 11:45:59;;;;;;;0.45;0.30;;;25.40;44.80;;;;;;5027800;28;20069;-64
2022/08/09 11:48:29;;;;;;;0.28;0.13;;;25.50;44.70;;;;;;5025554;28;20036;-65
2022/08/09 11:50:58;;;;;;;0.95;0.40;;;25.60;45.20;;;;;;5027107;28;20072;-65
2022/08/09 11:53:28;;;;;;;0.50;0.28;;;25.70;44.40;;;;;;5025731;28;20078;-64
2022/08/09 11:56:25;;;;;;;0.63;0.20;;;25.80;44.20;;;;;;5027472;28;20045;-64
2022/08/09 11:58:53;;;;;;;0.30;0.20;;;25.90;44.00;;;;;;5025860;28;20037;-64
2022/08/09 12:01:34;;;;;;;1.75;0.28;;;26.00;43.80;;;;;;5031304;28;20472;-61
2022/08/09 12:04:15;;;;;;;0.40;0.30;;;26.10;43.40;;;;;;5035590;28;20025;-63
2022/08/09 12:06:53;;;;;;;0.20;0.20;;;26.20;43.10;;;;;;5016941;28;20033;-64
2022/08/09 12:09:25;;;;;;;0.65;0.40;;;26.20;42.70;;;;;;5033829;28;20099;-66
2022/08/09 12:11:56;;;;;;;0.60;0.20;;;26.30;42.50;;;;;;5032113;28;20068;-65
2022/08/09 12:14:31;;;;;;;0.22;0.22;;;26.30;42.50;;;;;;5025464;28;20033;-64
2022/08/09 12:16:57;;;;;;;0.75;0.30;;;26.30;42.30;;;;;;5036232;28;20491;-65
2022/08/09 12:19:29;;;;;;;0.30;0.30;;;26.40;41.90;;;;;;5038216;28;20041;-64
2022/08/09 12:22:01;;;;;;;3.20;0.22;;;26.40;41.70;;;;;;5036266;28;20088;-65
2022/08/09 12:24:27;;;;;;;0.73;0.20;;;26.40;41.60;;;;;;5032503;28;21511;-64
2022/08/09 12:26:55;;;;;;;1.33;0.30;;;26.50;41.60;;;;;;5032093;28;20053;-63
2022/08/09 12:29:23;;;;;;;0.20;0.20;;;26.50;41.50;;;;;;5034009;28;20401;-61
2022/08/09 12:32:03;;;;;;;0.93;0.40;;;26.60;41.50;;;;;;5032369;28;20556;-63
2022/08/09 12:34:39;;;;;;;0.43;0.30;;;26.60;41.30;;;;;;5033166;28;20079;-65
2022/08/09 12:37:06;;;;;;;0.20;0.20;;;26.70;41.20;;;;;;5031796;28;20041;-64
2022/08/09 12:39:32;;;;;;;2.38;0.30;;;26.70;41.10;;;;;;5033663;28;20045;-64
2022/08/09 12:42:10;;;;;;;2.50;0.47;;;26.80;41.00;;;;;;5031518;28;20408;-64
2022/08/09 12:44:37;;;;;;;3.03;0.50;;;26.80;40.90;;;;;;5034520;28;21850;-63
2022/08/09 12:47:04;;;;;;;5.63;0.88;;;26.90;40.90;;;;;;5032739;28;20026;-64
2022/08/09 12:49:34;;;;;;;7.72;1.10;;;26.90;41.10;;;;;;5033159;28;20040;-67
2022/08/09 12:52:00;;;;;;;8.55;0.95;;;26.90;41.40;;;;;;5033086;28;20839;-67
2022/08/09 12:54:26;;;;;;;3.10;0.75;;;27.00;41.70;;;;;;5033961;28;20056;-67
2022/08/09 12:56:52;;;;;;;5.82;1.10;;;27.10;41.80;;;;;;5033774;28;20029;-63
2022/08/09 12:59:21;;;;;;;3.10;0.93;;;27.10;41.80;;;;;;5033018;28;20041;-62
2022/08/09 13:02:07;;;;;;;3.65;0.50;;;27.10;41.80;;;;;;5031228;28;20103;-61